sensor_id;sensor_type;location;lat;lon;timestamp;pressure;altitude;pressure_sealevel;temperature;humidity
55759;BME280;41678;52.126;20.664;2023-03-14T00:01:35;98671.97;;;8.68;84.16
55759;BME280;41678;52.126;20.664;2023-03-14T00:06:54;98663.13;;;8.70;84.13
55759;BME280;41678;52.126;20.664;2023-03-14T00:12:13;98673.56;;;8.73;83.73
55759;BME280;41678;52.126;20.664;2023-03-14T00:17:35;98670.06;;;8.73;83.50
55759;BME280;41678;52.126;20.664;2023-03-14T00:22:55;98659.53;;;8.74;83.67
55759;BME280;41678;52.126;20.664;2023-03-14T00:28:15;98645.59;;;8.72;83.67
55759;BME280;41678;52.126;20.664;2023-03-14T00:33:35;98647.22;;;8.76;82.90
55759;BME280;41678;52.126;20.664;2023-03-14T00:38:56;98631.56;;;8.73;82.84
55759;BME280;41678;52.126;20.664;2023-03-14T00:44:16;98623.75;;;8.72;82.52
55759;BME280;41678;52.126;20.664;2023-03-14T00:49:36;98623.84;;;8.69;82.22
55759;BME280;41678;52.126;20.664;2023-03-14T00:54:56;98609.81;;;8.70;82.01
55759;BME280;41678;52.126;20.664;2023-03-14T01:00:15;98609.72;;;8.73;82.00
55759;BME280;41678;52.126;20.664;2023-03-14T01:05:35;98608.13;;;8.67;81.81
55759;BME280;41678;52.126;20.664;2023-03-14T01:10:55;98580.28;;;8.63;81.85
55759;BME280;41678;52.126;20.664;2023-03-14T01:16:15;98587.22;;;8.66;81.78
55759;BME280;41678;52.126;20.664;2023-03-14T01:21:36;98594.22;;;8.65;81.50
55759;BME280;41678;52.126;20.664;2023-03-14T01:26:55;98592.63;;;8.59;81.56
55759;BME280;41678;52.126;20.664;2023-03-14T01:32:17;98584.06;;;8.54;81.07
55759;BME280;41678;52.126;20.664;2023-03-14T01:37:37;98591.91;;;8.54;81.10
55759;BME280;41678;52.126;20.664;2023-03-14T01:43:05;98582.34;;;8.53;81.30
55759;BME280;41678;52.126;20.664;2023-03-14T01:48:28;98579.72;;;8.53;81.32
55759;BME280;41678;52.126;20.664;2023-03-14T01:53:51;98573.03;;;8.41;81.24
55759;BME280;41678;52.126;20.664;2023-03-14T01:59:13;98567.88;;;8.38;81.38
55759;BME280;41678;52.126;20.664;2023-03-14T02:04:34;98558.34;;;8.35;80.97
55759;BME280;41678;52.126;20.664;2023-03-14T02:09:55;98553.28;;;8.29;80.81
55759;BME280;41678;52.126;20.664;2023-03-14T02:15:19;98549.84;;;8.27;81.04
55759;BME280;41678;52.126;20.664;2023-03-14T02:26:31;98516.88;;;8.20;81.28
55759;BME280;41678;52.126;20.664;2023-03-14T02:31:53;98486.50;;;8.11;81.33
55759;BME280;41678;52.126;20.664;2023-03-14T02:37:15;98490.13;;;8.08;81.41
55759;BME280;41678;52.126;20.664;2023-03-14T02:42:37;98492.91;;;8.02;80.92
55759;BME280;41678;52.126;20.664;2023-03-14T02:48:03;98494.78;;;7.99;80.95
55759;BME280;41678;52.126;20.664;2023-03-14T02:53:33;98495.69;;;7.98;80.83
55759;BME280;41678;52.126;20.664;2023-03-14T02:59:02;98491.28;;;7.98;81.03
55759;BME280;41678;52.126;20.664;2023-03-14T03:04:29;98499.13;;;8.00;80.90
55759;BME280;41678;52.126;20.664;2023-03-14T03:09:48;98496.72;;;7.92;80.27
55759;BME280;41678;52.126;20.664;2023-03-14T03:15:09;98482.41;;;8.02;81.24
55759;BME280;41678;52.126;20.664;2023-03-14T03:20:30;98468.78;;;7.91;80.84
55759;BME280;41678;52.126;20.664;2023-03-14T03:25:50;98472.31;;;7.90;80.86
55759;BME280;41678;52.126;20.664;2023-03-14T03:31:11;98468.88;;;7.88;80.82
55759;BME280;41678;52.126;20.664;2023-03-14T03:36:32;98466.31;;;7.86;80.42
55759;BME280;41678;52.126;20.664;2023-03-14T03:41:52;98439.34;;;7.83;80.79
55759;BME280;41678;52.126;20.664;2023-03-14T03:47:13;98451.66;;;7.79;80.21
55759;BME280;41678;52.126;20.664;2023-03-14T03:52:33;98462.19;;;7.77;80.44
55759;BME280;41678;52.126;20.664;2023-03-14T03:57:53;98476.91;;;7.82;80.53
55759;BME280;41678;52.126;20.664;2023-03-14T04:03:13;98474.63;;;7.71;80.31
55759;BME280;41678;52.126;20.664;2023-03-14T04:08:32;98477.34;;;7.68;80.37
55759;BME280;41678;52.126;20.664;2023-03-14T04:13:53;98472.09;;;7.68;80.30
55759;BME280;41678;52.126;20.664;2023-03-14T04:19:13;98462.66;;;7.62;80.33
55759;BME280;41678;52.126;20.664;2023-03-14T04:24:33;98472.00;;;7.71;79.97
55759;BME280;41678;52.126;20.664;2023-03-14T04:29:53;98460.63;;;7.72;80.27
55759;BME280;41678;52.126;20.664;2023-03-14T04:35:21;98439.06;;;7.62;80.35
55759;BME280;41678;52.126;20.664;2023-03-14T04:40:42;98434.56;;;7.67;80.07
55759;BME280;41678;52.126;20.664;2023-03-14T04:46:04;98420.50;;;7.70;79.68
55759;BME280;41678;52.126;20.664;2023-03-14T04:51:23;98413.34;;;7.76;79.49
55759;BME280;41678;52.126;20.664;2023-03-14T04:56:47;98417.69;;;7.76;79.68
55759;BME280;41678;52.126;20.664;2023-03-14T05:02:07;98406.38;;;7.75;79.27
55759;BME280;41678;52.126;20.664;2023-03-14T05:07:41;98392.28;;;7.79;79.23
55759;BME280;41678;52.126;20.664;2023-03-14T05:13:16;98386.94;;;7.83;79.20
55759;BME280;41678;52.126;20.664;2023-03-14T05:18:56;98400.84;;;7.85;79.20
55759;BME280;41678;52.126;20.664;2023-03-14T05:24:51;98383.31;;;7.87;79.05
55759;BME280;41678;52.126;20.664;2023-03-14T05:30:28;98378.06;;;7.87;78.79
55759;BME280;41678;52.126;20.664;2023-03-14T05:36:13;98364.06;;;7.88;78.18
55759;BME280;41678;52.126;20.664;2023-03-14T05:41:52;98346.47;;;7.91;78.34
55759;BME280;41678;52.126;20.664;2023-03-14T05:47:15;98338.47;;;7.96;78.28
55759;BME280;41678;52.126;20.664;2023-03-14T05:52:55;98315.44;;;8.06;78.14
55759;BME280;41678;52.126;20.664;2023-03-14T05:58:44;98314.28;;;8.15;77.37
55759;BME280;41678;52.126;20.664;2023-03-14T06:04:14;98303.59;;;8.21;77.95
55759;BME280;41678;52.126;20.664;2023-03-14T06:09:35;98290.56;;;8.18;77.65
55759;BME280;41678;52.126;20.664;2023-03-14T06:14:55;98308.75;;;8.24;77.54
55759;BME280;41678;52.126;20.664;2023-03-14T06:20:15;98308.41;;;8.33;77.79
55759;BME280;41678;52.126;20.664;2023-03-14T06:25:36;98303.09;;;8.36;78.00
55759;BME280;41678;52.126;20.664;2023-03-14T06:30:56;98302.75;;;8.46;78.14
55759;BME280;41678;52.126;20.664;2023-03-14T06:36:16;98315.47;;;8.58;77.45
55759;BME280;41678;52.126;20.664;2023-03-14T06:41:38;98298.69;;;8.62;77.66
55759;BME280;41678;52.126;20.664;2023-03-14T06:46:58;98284.13;;;8.79;77.31
55759;BME280;41678;52.126;20.664;2023-03-14T06:52:18;98296.75;;;8.93;77.52
55759;BME280;41678;52.126;20.664;2023-03-14T06:57:38;98299.84;;;9.04;77.30
55759;BME280;41678;52.126;20.664;2023-03-14T07:03:01;98317.44;;;9.25;76.85
55759;BME280;41678;52.126;20.664;2023-03-14T07:08:24;98324.78;;;9.40;76.81
55759;BME280;41678;52.126;20.664;2023-03-14T07:13:44;98333.31;;;9.45;77.46
55759;BME280;41678;52.126;20.664;2023-03-14T07:19:04;98325.38;;;9.69;77.57
55759;BME280;41678;52.126;20.664;2023-03-14T07:24:24;98326.31;;;9.68;78.30
55759;BME280;41678;52.126;20.664;2023-03-14T07:29:44;98343.31;;;9.82;78.40
55759;BME280;41678;52.126;20.664;2023-03-14T07:35:04;98342.94;;;9.91;78.67
55759;BME280;41678;52.126;20.664;2023-03-14T07:40:25;98334.34;;;10.08;78.49
55759;BME280;41678;52.126;20.664;2023-03-14T07:45:46;98332.75;;;10.26;77.83
55759;BME280;41678;52.126;20.664;2023-03-14T07:51:06;98320.19;;;10.33;77.23
55759;BME280;41678;52.126;20.664;2023-03-14T07:56:25;98324.66;;;10.53;77.58
55759;BME280;41678;52.126;20.664;2023-03-14T08:01:45;98321.41;;;10.67;76.58
55759;BME280;41678;52.126;20.664;2023-03-14T08:07:04;98338.53;;;10.77;77.44
55759;BME280;41678;52.126;20.664;2023-03-14T08:12:24;98342.47;;;10.88;77.09
55759;BME280;41678;52.126;20.664;2023-03-14T08:17:43;98343.31;;;10.88;76.96
55759;BME280;41678;52.126;20.664;2023-03-14T08:23:02;98358.63;;;10.99;76.74
55759;BME280;41678;52.126;20.664;2023-03-14T08:28:22;98355.34;;;11.15;76.47
55759;BME280;41678;52.126;20.664;2023-03-14T08:33:42;98361.03;;;11.25;76.55
55759;BME280;41678;52.126;20.664;2023-03-14T08:39:02;98355.28;;;11.55;75.96
55759;BME280;41678;52.126;20.664;2023-03-14T08:44:23;98351.94;;;11.70;76.73
55759;BME280;41678;52.126;20.664;2023-03-14T08:49:42;98340.97;;;11.97;75.63
55759;BME280;41678;52.126;20.664;2023-03-14T08:55:02;98344.41;;;11.99;76.23
55759;BME280;41678;52.126;20.664;2023-03-14T09:00:22;98356.47;;;12.05;74.47
55759;BME280;41678;52.126;20.664;2023-03-14T09:05:41;98344.75;;;12.11;74.15
55759;BME280;41678;52.126;20.664;2023-03-14T09:11:01;98334.34;;;12.08;75.30
55759;BME280;41678;52.126;20.664;2023-03-14T09:16:20;98320.25;;;12.09;74.42
55759;BME280;41678;52.126;20.664;2023-03-14T09:21:40;98309.41;;;12.15;73.83
55759;BME280;41678;52.126;20.664;2023-03-14T09:27:00;98322.28;;;12.21;73.79
55759;BME280;41678;52.126;20.664;2023-03-14T09:32:19;98307.06;;;12.26;75.05
55759;BME280;41678;52.126;20.664;2023-03-14T09:37:39;98295.81;;;12.40;73.60
55759;BME280;41678;52.126;20.664;2023-03-14T09:42:59;98293.72;;;12.47;74.02
55759;BME280;41678;52.126;20.664;2023-03-14T09:48:26;98286.34;;;12.54;73.87
55759;BME280;41678;52.126;20.664;2023-03-14T09:53:48;98285.94;;;12.61;73.73
55759;BME280;41678;52.126;20.664;2023-03-14T09:59:11;98282.03;;;12.69;72.70
55759;BME280;41678;52.126;20.664;2023-03-14T10:04:33;98276.44;;;12.75;73.69
55759;BME280;41678;52.126;20.664;2023-03-14T10:09:52;98292.91;;;12.80;73.85
55759;BME280;41678;52.126;20.664;2023-03-14T10:15:15;98284.41;;;12.91;73.37
55759;BME280;41678;52.126;20.664;2023-03-14T10:20:39;98268.47;;;12.93;73.04
55759;BME280;41678;52.126;20.664;2023-03-14T10:26:05;98278.53;;;13.02;73.38
55759;BME280;41678;52.126;20.664;2023-03-14T10:31:25;98285.09;;;13.11;72.96
55759;BME280;41678;52.126;20.664;2023-03-14T10:36:45;98280.19;;;13.21;72.66
55759;BME280;41678;52.126;20.664;2023-03-14T10:42:30;98265.28;;;13.20;73.40
55759;BME280;41678;52.126;20.664;2023-03-14T10:47:51;98278.22;;;13.24;73.34
55759;BME280;41678;52.126;20.664;2023-03-14T10:53:11;98271.81;;;13.12;71.94
55759;BME280;41678;52.126;20.664;2023-03-14T10:58:35;98252.22;;;13.16;72.27
55759;BME280;41678;52.126;20.664;2023-03-14T11:16:09;98279.16;;;13.07;72.55
55759;BME280;41678;52.126;20.664;2023-03-14T11:26:50;98275.56;;;13.08;72.66
55759;BME280;41678;52.126;20.664;2023-03-14T11:37:54;98268.41;;;13.10;72.73
55759;BME280;41678;52.126;20.664;2023-03-14T11:43:20;98275.75;;;13.21;73.62
55759;BME280;41678;52.126;20.664;2023-03-14T11:49:22;98279.50;;;13.17;74.46
55759;BME280;41678;52.126;20.664;2023-03-14T12:00:20;98262.47;;;13.23;74.13
55759;BME280;41678;52.126;20.664;2023-03-14T12:11:38;98292.38;;;13.23;74.73
55759;BME280;41678;52.126;20.664;2023-03-14T12:17:20;98287.09;;;13.07;73.92
55759;BME280;41678;52.126;20.664;2023-03-14T12:23:06;98302.16;;;13.05;73.26
55759;BME280;41678;52.126;20.664;2023-03-14T12:28:31;98290.38;;;12.95;74.06
55759;BME280;41678;52.126;20.664;2023-03-14T12:34:01;98298.72;;;12.87;74.08
55759;BME280;41678;52.126;20.664;2023-03-14T12:40:00;98309.69;;;12.79;73.93
55759;BME280;41678;52.126;20.664;2023-03-14T12:45:35;98318.94;;;12.70;74.90
55759;BME280;41678;52.126;20.664;2023-03-14T12:51:03;98315.13;;;12.58;75.30
55759;BME280;41678;52.126;20.664;2023-03-14T13:08:13;98305.72;;;12.35;76.96
55759;BME280;41678;52.126;20.664;2023-03-14T13:13:25;98317.00;;;12.21;77.59
55759;BME280;41678;52.126;20.664;2023-03-14T13:18:48;98321.66;;;12.16;77.63
55759;BME280;41678;52.126;20.664;2023-03-14T13:24:22;98329.84;;;12.10;78.12
55759;BME280;41678;52.126;20.664;2023-03-14T13:29:42;98326.44;;;12.08;78.44
55759;BME280;41678;52.126;20.664;2023-03-14T13:35:01;98318.97;;;11.98;78.90
55759;BME280;41678;52.126;20.664;2023-03-14T13:40:34;98311.66;;;11.86;78.89
55759;BME280;41678;52.126;20.664;2023-03-14T13:46:04;98303.66;;;11.87;79.63
55759;BME280;41678;52.126;20.664;2023-03-14T13:51:25;98296.56;;;11.70;80.02
55759;BME280;41678;52.126;20.664;2023-03-14T13:56:47;98301.19;;;11.65;80.19
55759;BME280;41678;52.126;20.664;2023-03-14T14:02:13;98290.75;;;11.44;80.76
55759;BME280;41678;52.126;20.664;2023-03-14T14:07:34;98296.19;;;11.41;80.89
55759;BME280;41678;52.126;20.664;2023-03-14T14:13:01;98289.47;;;11.34;81.28
55759;BME280;41678;52.126;20.664;2023-03-14T14:18:23;98276.38;;;11.13;81.73
55759;BME280;41678;52.126;20.664;2023-03-14T14:23:46;98286.50;;;11.23;81.47
55759;BME280;41678;52.126;20.664;2023-03-14T14:29:06;98290.03;;;11.22;82.07
55759;BME280;41678;52.126;20.664;2023-03-14T14:34:25;98288.34;;;11.20;81.75
55759;BME280;41678;52.126;20.664;2023-03-14T14:39:47;98310.00;;;11.08;82.54
55759;BME280;41678;52.126;20.664;2023-03-14T14:45:14;98296.16;;;11.03;82.81
55759;BME280;41678;52.126;20.664;2023-03-14T14:50:49;98292.75;;;11.01;82.85
55759;BME280;41678;52.126;20.664;2023-03-14T14:56:21;98290.81;;;10.85;83.99
55759;BME280;41678;52.126;20.664;2023-03-14T15:01:44;98277.06;;;10.79;83.85
55759;BME280;41678;52.126;20.664;2023-03-14T15:07:08;98292.00;;;10.78;83.74
55759;BME280;41678;52.126;20.664;2023-03-14T15:12:27;98300.09;;;10.73;84.16
55759;BME280;41678;52.126;20.664;2023-03-14T15:17:47;98301.50;;;10.61;84.62
55759;BME280;41678;52.126;20.664;2023-03-14T15:23:11;98308.59;;;10.59;84.47
55759;BME280;41678;52.126;20.664;2023-03-14T15:28:31;98291.19;;;10.57;84.95
55759;BME280;41678;52.126;20.664;2023-03-14T15:33:51;98286.31;;;10.47;85.01
55759;BME280;41678;52.126;20.664;2023-03-14T15:39:11;98292.09;;;10.56;84.59
55759;BME280;41678;52.126;20.664;2023-03-14T15:44:31;98290.09;;;10.40;85.32
55759;BME280;41678;52.126;20.664;2023-03-14T15:49:50;98287.22;;;10.46;84.96
55759;BME280;41678;52.126;20.664;2023-03-14T15:55:11;98307.28;;;10.49;84.84
55759;BME280;41678;52.126;20.664;2023-03-14T16:00:31;98315.91;;;10.30;85.50
55759;BME280;41678;52.126;20.664;2023-03-14T16:05:51;98320.53;;;10.25;85.78
55759;BME280;41678;52.126;20.664;2023-03-14T16:11:12;98309.63;;;10.34;86.15
55759;BME280;41678;52.126;20.664;2023-03-14T16:16:33;98283.09;;;10.18;85.83
55759;BME280;41678;52.126;20.664;2023-03-14T16:21:53;98302.38;;;10.19;86.46
55759;BME280;41678;52.126;20.664;2023-03-14T16:27:13;98316.31;;;10.21;86.38
55759;BME280;41678;52.126;20.664;2023-03-14T16:32:32;98313.81;;;10.18;86.73
55759;BME280;41678;52.126;20.664;2023-03-14T16:37:52;98312.94;;;10.17;86.66
55759;BME280;41678;52.126;20.664;2023-03-14T16:43:12;98310.63;;;10.10;86.70
55759;BME280;41678;52.126;20.664;2023-03-14T16:48:32;98318.09;;;9.98;87.04
55759;BME280;41678;52.126;20.664;2023-03-14T16:53:51;98324.28;;;9.97;87.38
55759;BME280;41678;52.126;20.664;2023-03-14T16:59:11;98324.28;;;9.97;87.28
55759;BME280;41678;52.126;20.664;2023-03-14T17:04:30;98317.59;;;9.90;87.37
55759;BME280;41678;52.126;20.664;2023-03-14T17:09:50;98323.63;;;9.92;87.12
55759;BME280;41678;52.126;20.664;2023-03-14T17:15:11;98326.91;;;9.97;87.33
55759;BME280;41678;52.126;20.664;2023-03-14T17:20:31;98337.69;;;9.91;87.30
55759;BME280;41678;52.126;20.664;2023-03-14T17:25:51;98334.31;;;9.87;87.41
55759;BME280;41678;52.126;20.664;2023-03-14T17:31:16;98337.38;;;9.99;87.29
55759;BME280;41678;52.126;20.664;2023-03-14T17:36:36;98338.66;;;9.88;87.17
55759;BME280;41678;52.126;20.664;2023-03-14T17:41:55;98349.00;;;9.93;87.09
55759;BME280;41678;52.126;20.664;2023-03-14T17:47:15;98355.66;;;10.02;86.63
55759;BME280;41678;52.126;20.664;2023-03-14T17:52:35;98352.97;;;10.03;86.81
55759;BME280;41678;52.126;20.664;2023-03-14T17:57:55;98351.75;;;9.90;86.95
55759;BME280;41678;52.126;20.664;2023-03-14T18:03:14;98346.63;;;9.87;87.03
55759;BME280;41678;52.126;20.664;2023-03-14T18:08:35;98358.78;;;9.89;86.80
55759;BME280;41678;52.126;20.664;2023-03-14T18:13:55;98349.16;;;9.88;86.42
55759;BME280;41678;52.126;20.664;2023-03-14T18:19:15;98355.16;;;9.92;86.77
55759;BME280;41678;52.126;20.664;2023-03-14T18:24:35;98358.16;;;9.83;86.70
55759;BME280;41678;52.126;20.664;2023-03-14T18:29:54;98352.09;;;9.81;87.01
55759;BME280;41678;52.126;20.664;2023-03-14T18:35:13;98360.84;;;9.81;86.55
55759;BME280;41678;52.126;20.664;2023-03-14T18:40:33;98367.88;;;9.81;86.57
55759;BME280;41678;52.126;20.664;2023-03-14T18:45:52;98375.59;;;9.85;86.41
55759;BME280;41678;52.126;20.664;2023-03-14T18:51:14;98381.94;;;9.80;86.83
55759;BME280;41678;52.126;20.664;2023-03-14T18:56:34;98393.66;;;9.71;86.51
55759;BME280;41678;52.126;20.664;2023-03-14T19:01:53;98391.03;;;9.71;86.94
55759;BME280;41678;52.126;20.664;2023-03-14T19:07:13;98383.16;;;9.71;86.44
55759;BME280;41678;52.126;20.664;2023-03-14T19:12:33;98388.41;;;9.71;86.36
55759;BME280;41678;52.126;20.664;2023-03-14T19:17:53;98375.38;;;9.68;86.62
55759;BME280;41678;52.126;20.664;2023-03-14T19:23:12;98382.47;;;9.66;87.01
55759;BME280;41678;52.126;20.664;2023-03-14T19:28:35;98384.47;;;9.59;86.96
55759;BME280;41678;52.126;20.664;2023-03-14T19:33:55;98379.22;;;9.59;87.08
55759;BME280;41678;52.126;20.664;2023-03-14T19:39:14;98375.81;;;9.57;87.21
55759;BME280;41678;52.126;20.664;2023-03-14T19:44:33;98375.28;;;9.47;87.12
55759;BME280;41678;52.126;20.664;2023-03-14T19:49:53;98381.41;;;9.47;87.05
55759;BME280;41678;52.126;20.664;2023-03-14T19:55:12;98391.03;;;9.47;86.88
55759;BME280;41678;52.126;20.664;2023-03-14T20:00:32;98388.59;;;9.42;86.71
55759;BME280;41678;52.126;20.664;2023-03-14T20:05:52;98386.91;;;9.41;86.76
55759;BME280;41678;52.126;20.664;2023-03-14T20:11:12;98388.03;;;9.34;87.06
55759;BME280;41678;52.126;20.664;2023-03-14T20:16:32;98388.13;;;9.31;87.04
55759;BME280;41678;52.126;20.664;2023-03-14T20:21:54;98395.44;;;9.23;87.14
55759;BME280;41678;52.126;20.664;2023-03-14T20:27:14;98401.72;;;9.18;87.34
55759;BME280;41678;52.126;20.664;2023-03-14T20:32:33;98404.19;;;9.23;87.28
55759;BME280;41678;52.126;20.664;2023-03-14T20:37:53;98399.53;;;9.06;87.76
55759;BME280;41678;52.126;20.664;2023-03-14T20:43:16;98401.84;;;9.15;87.55
55759;BME280;41678;52.126;20.664;2023-03-14T20:48:36;98398.72;;;9.04;87.71
55759;BME280;41678;52.126;20.664;2023-03-14T20:53:57;98397.66;;;9.10;87.80
55759;BME280;41678;52.126;20.664;2023-03-14T20:59:17;98400.78;;;8.96;88.09
55759;BME280;41678;52.126;20.664;2023-03-14T21:04:37;98410.41;;;8.95;87.99
55759;BME280;41678;52.126;20.664;2023-03-14T21:09:56;98404.50;;;8.88;88.36
55759;BME280;41678;52.126;20.664;2023-03-14T21:15:16;98397.56;;;8.87;88.60
55759;BME280;41678;52.126;20.664;2023-03-14T21:20:37;98392.94;;;8.94;88.12
55759;BME280;41678;52.126;20.664;2023-03-14T21:25:57;98393.09;;;8.89;88.53
55759;BME280;41678;52.126;20.664;2023-03-14T21:31:16;98396.59;;;8.90;87.77
55759;BME280;41678;52.126;20.664;2023-03-14T21:36:36;98404.50;;;8.88;88.16
55759;BME280;41678;52.126;20.664;2023-03-14T21:41:56;98416.72;;;8.89;88.18
55759;BME280;41678;52.126;20.664;2023-03-14T21:47:17;98413.06;;;8.93;88.30
55759;BME280;41678;52.126;20.664;2023-03-14T21:52:37;98406.13;;;8.92;88.22
55759;BME280;41678;52.126;20.664;2023-03-14T21:57:57;98411.16;;;8.99;88.37
55759;BME280;41678;52.126;20.664;2023-03-14T22:03:19;98411.97;;;9.01;88.59
55759;BME280;41678;52.126;20.664;2023-03-14T22:08:41;98413.00;;;8.97;88.63
55759;BME280;41678;52.126;20.664;2023-03-14T22:14:01;98416.19;;;9.05;88.27
55759;BME280;41678;52.126;20.664;2023-03-14T22:19:21;98420.53;;;9.06;88.57
55759;BME280;41678;52.126;20.664;2023-03-14T22:24:40;98431.94;;;9.05;88.59
55759;BME280;41678;52.126;20.664;2023-03-14T22:29:59;98428.50;;;9.03;88.36
55759;BME280;41678;52.126;20.664;2023-03-14T22:35:19;98427.56;;;9.05;88.31
55759;BME280;41678;52.126;20.664;2023-03-14T22:40:38;98430.97;;;9.07;88.47
55759;BME280;41678;52.126;20.664;2023-03-14T22:46:03;98437.31;;;9.02;88.43
55759;BME280;41678;52.126;20.664;2023-03-14T22:51:23;98446.84;;;9.04;88.48
55759;BME280;41678;52.126;20.664;2023-03-14T22:56:43;98447.69;;;9.05;88.75
55759;BME280;41678;52.126;20.664;2023-03-14T23:02:02;98466.94;;;9.05;88.80
55759;BME280;41678;52.126;20.664;2023-03-14T23:07:22;98456.47;;;9.04;88.66
55759;BME280;41678;52.126;20.664;2023-03-14T23:12:41;98472.22;;;9.04;88.53
55759;BME280;41678;52.126;20.664;2023-03-14T23:18:03;98488.78;;;9.06;88.67
55759;BME280;41678;52.126;20.664;2023-03-14T23:23:23;98495.94;;;9.02;88.43
55759;BME280;41678;52.126;20.664;2023-03-14T23:28:43;98495.94;;;9.02;88.78
55759;BME280;41678;52.126;20.664;2023-03-14T23:34:03;98503.72;;;9.04;88.53
55759;BME280;41678;52.126;20.664;2023-03-14T23:39:23;98507.28;;;9.03;88.65
55759;BME280;41678;52.126;20.664;2023-03-14T23:44:43;98515.94;;;9.05;88.54
55759;BME280;41678;52.126;20.664;2023-03-14T23:50:03;98514.88;;;9.11;88.48
55759;BME280;41678;52.126;20.664;2023-03-14T23:55:23;98528.28;;;9.03;88.64
